Time;durP1;ratioP1;P1;durP2;ratioP2;P2;SDS_P1;SDS_P2;PMS_P1;PMS_P2;Temp;Humidity;BMP_temperature;BMP_pressure;BME280_temperature;BME280_humidity;BME280_pressure;Samples;Min_cycle;Max_cycle;Signal;HPM_P1;HPM_P2
2022/06/14 00:01:05;;;;;;;18.87;8.53;;;16.30;99.90;;;;;;4860591;29;20272;-58
2022/06/14 00:03:39;;;;;;;16.30;9.70;;;16.40;99.90;;;;;;4860799;29;20315;-58
2022/06/14 00:06:20;;;;;;;14.53;10.10;;;16.40;99.90;;;;;;4860308;29;20273;-59
2022/06/14 00:08:47;;;;;;;13.17;10.37;;;16.40;99.90;;;;;;4843921;29;20223;-58
2022/06/14 00:11:16;;;;;;;13.90;10.53;;;16.40;99.90;;;;;;4847622;29;20185;-58
2022/06/14 00:13:43;;;;;;;12.77;10.40;;;16.40;99.90;;;;;;4842218;29;20190;-58
2022/06/14 00:16:09;;;;;;;12.63;9.83;;;16.40;99.90;;;;;;4841914;29;20186;-60
2022/06/14 00:18:35;;;;;;;11.20;10.00;;;16.40;99.90;;;;;;4850867;29;20189;-58
2022/06/14 00:21:01;;;;;;;11.33;10.13;;;16.40;99.90;;;;;;4860392;29;20208;-59
2022/06/14 00:23:28;;;;;;;12.77;8.27;;;16.40;99.90;;;;;;4860385;29;20304;-58
2022/06/14 00:25:56;;;;;;;13.73;9.03;;;16.40;99.90;;;;;;4860531;29;20189;-58
2022/06/14 00:28:25;;;;;;;13.90;8.87;;;16.40;99.90;;;;;;4859767;29;20812;-59
2022/06/14 00:30:56;;;;;;;9.33;7.80;;;16.40;99.90;;;;;;4860270;29;20181;-59
2022/06/14 00:33:23;;;;;;;12.37;8.33;;;16.30;99.90;;;;;;4860157;29;20269;-58
2022/06/14 00:35:49;;;;;;;10.57;8.23;;;16.30;99.90;;;;;;4860078;29;20191;-59
2022/06/14 00:38:15;;;;;;;10.67;7.60;;;16.30;99.90;;;;;;4860090;29;20201;-60
2022/06/14 00:40:50;;;;;;;11.33;8.67;;;16.30;99.90;;;;;;4860343;29;20191;-59
2022/06/14 00:43:18;;;;;;;12.33;8.53;;;16.20;99.90;;;;;;4860470;29;20191;-58
2022/06/14 00:45:43;;;;;;;13.57;7.90;;;16.20;99.90;;;;;;4860196;29;20177;-58
2022/06/14 00:48:19;;;;;;;9.43;7.70;;;16.10;99.90;;;;;;4859800;29;20689;-60
2022/06/14 00:50:51;;;;;;;9.90;8.17;;;16.10;99.90;;;;;;4860255;29;20226;-60
2022/06/14 00:53:26;;;;;;;11.00;8.30;;;16.00;99.90;;;;;;4860246;29;20210;-58
2022/06/14 00:56:31;;;;;;;12.17;8.40;;;16.00;99.90;;;;;;4860104;29;20207;-58
2022/06/14 00:59:08;;;;;;;10.50;7.70;;;15.90;99.90;;;;;;4845349;29;20250;-59
2022/06/14 01:01:37;;;;;;;13.87;7.93;;;16.00;99.90;;;;;;4841586;29;20201;-58
2022/06/14 01:04:12;;;;;;;9.97;7.80;;;16.00;99.90;;;;;;4839467;29;20220;-58
2022/06/14 01:06:44;;;;;;;9.30;7.00;;;16.10;99.90;;;;;;4840905;29;20233;-58
2022/06/14 01:09:31;;;;;;;9.10;6.87;;;16.10;99.90;;;;;;4840967;29;20186;-58
2022/06/14 01:12:04;;;;;;;8.83;6.70;;;16.10;99.90;;;;;;4841387;29;20319;-59
2022/06/14 01:15:00;;;;;;;6.33;4.90;;;16.20;99.90;;;;;;4841398;29;20288;-58
2022/06/14 01:17:26;;;;;;;11.77;6.43;;;16.20;99.90;;;;;;4832597;29;20199;-59
2022/06/14 01:19:53;;;;;;;8.47;5.90;;;16.20;99.90;;;;;;4860199;29;20183;-58
2022/06/14 01:22:19;;;;;;;10.90;6.43;;;16.20;99.90;;;;;;4859338;29;20193;-59
2022/06/14 01:24:45;;;;;;;8.97;6.00;;;16.20;99.90;;;;;;4859783;29;20703;-58
2022/06/14 01:27:15;;;;;;;9.20;5.93;;;16.10;99.90;;;;;;4859301;29;20272;-58
2022/06/14 01:29:45;;;;;;;12.63;6.73;;;16.10;99.90;;;;;;4859610;29;20252;-58
2022/06/14 01:32:15;;;;;;;9.27;6.53;;;16.00;99.90;;;;;;4859339;29;20521;-58
2022/06/14 01:34:47;;;;;;;8.00;6.43;;;16.00;99.90;;;;;;4859762;29;20272;-59
2022/06/14 01:37:13;;;;;;;6.97;5.87;;;15.90;99.90;;;;;;4859372;29;20187;-59
2022/06/14 01:39:39;;;;;;;6.57;5.73;;;15.80;99.90;;;;;;4859569;29;20234;-59
2022/06/14 01:42:25;;;;;;;9.87;5.90;;;15.80;99.90;;;;;;4859448;29;20589;-59
2022/06/14 01:45:19;;;;;;;6.57;5.00;;;15.80;99.90;;;;;;4859541;29;20307;-65
2022/06/14 01:48:01;;;;;;;9.87;4.53;;;15.70;99.90;;;;;;4842789;29;20192;-59
2022/06/14 01:53:42;;;;;;;6.93;4.30;;;15.60;99.90;;;;;;4859197;29;20195;-58
2022/06/14 01:56:39;;;;;;;4.63;3.70;;;15.60;99.90;;;;;;4859315;29;20192;-60
2022/06/14 01:59:33;;;;;;;5.40;3.67;;;15.50;99.90;;;;;;4859285;29;20184;-58
2022/06/14 02:02:11;;;;;;;9.07;3.67;;;15.40;99.90;;;;;;4856841;29;20607;-59
2022/06/14 02:05:06;;;;;;;7.33;3.07;;;15.40;99.90;;;;;;4859352;29;20219;-59
2022/06/14 02:07:55;;;;;;;4.23;2.90;;;15.30;99.90;;;;;;4849170;29;20208;-59
2022/06/14 02:10:57;;;;;;;5.17;2.70;;;15.20;99.90;;;;;;4842627;29;20201;-59
2022/06/14 02:13:43;;;;;;;5.20;2.10;;;15.10;99.90;;;;;;4837205;29;20206;-58
2022/06/14 02:16:33;;;;;;;6.73;2.47;;;15.10;99.90;;;;;;4839606;29;20205;-64
2022/06/14 02:19:14;;;;;;;3.70;2.27;;;15.00;99.90;;;;;;4852569;29;20199;-60
2022/06/14 02:21:46;;;;;;;3.67;2.03;;;15.00;99.90;;;;;;4845911;29;20189;-59
2022/06/14 02:24:14;;;;;;;3.00;2.20;;;14.90;99.90;;;;;;4862063;29;20216;-58
2022/06/14 02:27:03;;;;;;;2.73;1.97;;;14.90;99.90;;;;;;4862579;29;20182;-59
2022/06/14 02:29:38;;;;;;;3.23;2.47;;;14.90;99.90;;;;;;4880924;29;20236;-60
2022/06/14 02:32:14;;;;;;;2.37;1.90;;;14.90;99.90;;;;;;4880866;29;20184;-59
2022/06/14 02:35:06;;;;;;;3.00;2.23;;;14.90;99.90;;;;;;4864199;29;20193;-58
2022/06/14 02:37:56;;;;;;;2.80;2.20;;;14.90;99.90;;;;;;4880701;29;20192;-59
2022/06/14 02:40:29;;;;;;;7.00;2.40;;;15.00;99.90;;;;;;4880661;29;20212;-58
2022/06/14 02:43:08;;;;;;;3.40;2.33;;;15.00;99.90;;;;;;4880936;29;20257;-60
2022/06/14 02:45:50;;;;;;;5.37;2.03;;;15.10;99.90;;;;;;4880547;29;20248;-60
2022/06/14 02:48:58;;;;;;;3.03;2.07;;;15.10;99.90;;;;;;4880300;29;20251;-59
2022/06/14 02:51:42;;;;;;;3.53;2.30;;;15.10;99.90;;;;;;4818258;29;20202;-59
2022/06/14 02:54:10;;;;;;;4.87;2.00;;;15.10;99.90;;;;;;4854786;29;20232;-59
2022/06/14 02:56:45;;;;;;;2.50;2.20;;;15.00;99.90;;;;;;4853945;29;20241;-59
2022/06/14 02:59:27;;;;;;;2.90;2.00;;;15.00;99.90;;;;;;4861642;29;20211;-59
2022/06/14 03:02:03;;;;;;;3.33;2.00;;;14.90;99.90;;;;;;4849293;29;20190;-60
2022/06/14 03:04:40;;;;;;;5.00;2.17;;;14.90;99.90;;;;;;4842987;29;20217;-60
2022/06/14 03:07:12;;;;;;;3.67;2.40;;;14.80;99.90;;;;;;4843081;29;20221;-59
2022/06/14 03:09:41;;;;;;;3.33;2.50;;;14.80;99.90;;;;;;4843729;29;20186;-59
2022/06/14 03:12:16;;;;;;;2.80;2.37;;;14.70;99.90;;;;;;4860952;29;20200;-59
2022/06/14 03:14:48;;;;;;;3.77;2.50;;;14.70;99.90;;;;;;4861203;29;20281;-58
2022/06/14 03:17:40;;;;;;;4.97;2.70;;;14.80;99.90;;;;;;4860677;29;20180;-59
2022/06/14 03:20:32;;;;;;;5.37;2.50;;;14.70;99.90;;;;;;4825635;29;20369;-61
2022/06/14 03:23:09;;;;;;;4.50;2.37;;;14.80;99.90;;;;;;4813812;29;20263;-60
2022/06/14 03:25:41;;;;;;;5.27;2.33;;;14.80;99.90;;;;;;4842244;29;20211;-59
2022/06/14 03:28:16;;;;;;;3.17;2.30;;;14.80;99.90;;;;;;4842092;29;20225;-59
2022/06/14 03:31:00;;;;;;;4.43;2.63;;;14.90;99.90;;;;;;4841574;29;20507;-59
2022/06/14 03:33:43;;;;;;;3.10;1.77;;;15.00;99.90;;;;;;4841864;29;20293;-61
2022/06/14 03:36:10;;;;;;;8.43;1.90;;;15.00;99.90;;;;;;4842256;29;20224;-59
2022/06/14 03:38:51;;;;;;;4.47;2.40;;;14.90;99.90;;;;;;4825505;29;20182;-59
2022/06/14 03:41:21;;;;;;;3.80;1.87;;;14.90;99.90;;;;;;4841924;29;20217;-60
2022/06/14 03:43:48;;;;;;;6.30;2.00;;;14.90;99.90;;;;;;4842362;29;20573;-60
2022/06/14 03:46:19;;;;;;;6.20;2.03;;;14.90;99.90;;;;;;4842204;29;20677;-65
2022/06/14 03:48:49;;;;;;;3.00;1.80;;;14.90;99.90;;;;;;4841825;29;20193;-59
2022/06/14 03:51:15;;;;;;;2.87;2.10;;;14.80;99.90;;;;;;4841844;29;20659;-61
2022/06/14 03:54:15;;;;;;;3.50;1.83;;;14.80;99.90;;;;;;4825464;29;20228;-58
2022/06/14 03:56:50;;;;;;;5.43;2.10;;;14.90;99.90;;;;;;4841834;29;20271;-58
2022/06/14 03:59:44;;;;;;;2.37;1.90;;;14.90;99.90;;;;;;4841327;29;20196;-59
2022/06/14 04:02:53;;;;;;;4.77;2.23;;;14.90;99.90;;;;;;4841786;29;20193;-58
2022/06/14 04:05:58;;;;;;;6.30;2.00;;;14.90;99.90;;;;;;4841408;29;20234;-60
2022/06/14 04:08:35;;;;;;;2.97;1.80;;;15.00;99.90;;;;;;4766655;30;20196;-59
2022/06/14 04:11:28;;;;;;;4.50;1.60;;;15.00;99.90;;;;;;4767210;30;20223;-58
2022/06/14 04:14:20;;;;;;;3.93;2.23;;;15.10;99.90;;;;;;4821064;29;20216;-59
2022/06/14 04:17:02;;;;;;;3.43;1.93;;;15.10;99.90;;;;;;4808455;29;20714;-60
2022/06/14 04:19:51;;;;;;;5.50;2.60;;;15.20;99.90;;;;;;4856556;29;20291;-60
2022/06/14 04:22:54;;;;;;;6.83;1.90;;;15.40;99.90;;;;;;4847129;29;20224;-61
2022/06/14 04:25:41;;;;;;;3.87;1.47;;;15.40;99.90;;;;;;4859354;29;20352;-59
2022/06/14 04:28:16;;;;;;;2.60;1.53;;;15.30;99.90;;;;;;4859629;29;20228;-61
2022/06/14 04:31:00;;;;;;;8.60;1.87;;;15.10;99.90;;;;;;4859183;29;20208;-61
2022/06/14 04:33:36;;;;;;;5.27;2.10;;;15.00;99.90;;;;;;4859263;29;20169;-61
2022/06/14 04:36:20;;;;;;;3.30;2.00;;;14.90;99.90;;;;;;4859204;29;20185;-58
2022/06/14 04:39:25;;;;;;;2.67;1.70;;;14.90;99.90;;;;;;4859473;29;20233;-60
2022/06/14 04:42:01;;;;;;;7.67;2.00;;;14.80;99.90;;;;;;4769265;29;20200;-59
2022/06/14 04:44:43;;;;;;;4.43;1.70;;;14.70;99.90;;;;;;4838948;29;20248;-60
2022/06/14 04:47:39;;;;;;;3.90;1.60;;;14.70;99.90;;;;;;4835459;29;20254;-61
2022/06/14 04:50:15;;;;;;;5.23;1.60;;;14.70;99.90;;;;;;4827206;29;20189;-59
2022/06/14 04:52:48;;;;;;;4.23;1.63;;;14.60;99.90;;;;;;4823496;29;20186;-61
2022/06/14 04:55:23;;;;;;;4.40;1.70;;;14.60;99.90;;;;;;4839444;29;20206;-61
2022/06/14 04:58:07;;;;;;;6.77;1.93;;;14.60;99.90;;;;;;4822472;29;20542;-62
2022/06/14 05:00:39;;;;;;;3.07;2.10;;;14.60;99.90;;;;;;4838911;29;20596;-61
2022/06/14 05:03:08;;;;;;;5.53;1.90;;;14.60;99.90;;;;;;4837769;29;20269;-61
2022/06/14 05:05:44;;;;;;;6.30;2.17;;;14.60;99.90;;;;;;4822761;29;20275;-59
2022/06/14 05:08:23;;;;;;;2.10;1.60;;;14.60;99.90;;;;;;4837094;29;20250;-60
2022/06/14 05:11:05;;;;;;;15.20;2.80;;;14.60;99.90;;;;;;4839410;29;20251;-60
2022/06/14 05:14:03;;;;;;;3.97;1.80;;;14.90;99.90;;;;;;4838301;29;20283;-60
2022/06/14 05:16:46;;;;;;;7.03;2.37;;;14.90;99.90;;;;;;4836223;29;20586;-61
2022/06/14 05:19:27;;;;;;;2.97;1.87;;;15.10;99.90;;;;;;4831929;29;20607;-60
2022/06/14 05:22:00;;;;;;;1.40;1.30;;;15.20;99.90;;;;;;4832472;29;20192;-60
2022/06/14 05:24:28;;;;;;;3.37;1.60;;;15.20;99.90;;;;;;4821599;29;20251;-67
2022/06/14 05:27:05;;;;;;;2.60;1.47;;;15.20;99.90;;;;;;4821331;29;20281;-66
2022/06/14 05:29:37;;;;;;;3.60;1.50;;;15.30;99.90;;;;;;4821381;29;20222;-67
2022/06/14 05:32:24;;;;;;;2.87;1.50;;;15.40;99.90;;;;;;4832095;29;20238;-64
2022/06/14 05:35:02;;;;;;;3.77;1.80;;;15.40;99.90;;;;;;4826034;29;20278;-68
2022/06/14 05:37:40;;;;;;;5.07;1.50;;;15.40;99.90;;;;;;4831353;29;20225;-64
2022/06/14 05:40:12;;;;;;;2.37;1.50;;;15.50;99.90;;;;;;4831962;29;20209;-66
2022/06/14 05:42:58;;;;;;;2.13;1.50;;;15.50;99.90;;;;;;4822481;29;20945;-61
2022/06/14 05:45:25;;;;;;;3.03;1.80;;;15.60;99.90;;;;;;4817238;29;20336;-62
2022/06/14 05:48:00;;;;;;;2.27;1.27;;;15.50;99.90;;;;;;4839703;29;20281;-61
2022/06/14 05:50:31;;;;;;;5.80;1.57;;;15.50;99.90;;;;;;4839046;29;20188;-66
2022/06/14 05:53:20;;;;;;;4.87;2.07;;;15.60;99.90;;;;;;4840194;29;20204;-66
2022/06/14 05:55:56;;;;;;;8.73;1.87;;;15.60;99.90;;;;;;4825379;29;20189;-66
2022/06/14 05:58:26;;;;;;;4.90;1.73;;;15.70;99.90;;;;;;4842686;29;20177;-61
2022/06/14 06:00:57;;;;;;;5.03;1.73;;;15.90;99.90;;;;;;4842944;29;20190;-64
2022/06/14 06:03:53;;;;;;;10.30;2.83;;;15.80;99.90;;;;;;4842525;29;20207;-57
2022/06/14 06:06:29;;;;;;;4.30;1.70;;;15.80;99.90;;;;;;4824519;29;20189;-61
2022/06/14 06:09:03;;;;;;;5.37;1.57;;;15.80;99.90;;;;;;4824738;29;20193;-64
2022/06/14 06:11:41;;;;;;;7.20;1.70;;;15.80;99.90;;;;;;4837988;29;20193;-64
2022/06/14 06:14:07;;;;;;;3.03;1.70;;;15.70;99.90;;;;;;4826614;29;20194;-67
2022/06/14 06:19:17;;;;;;;4.80;1.83;;;16.20;99.90;;;;;;4856546;29;20195;-62
2022/06/14 06:21:49;;;;;;;2.40;1.10;;;16.50;99.90;;;;;;4861087;29;20276;-63
2022/06/14 06:24:49;;;;;;;8.30;2.30;;;16.50;99.90;;;;;;4861131;29;20235;-64
2022/06/14 06:27:14;;;;;;;8.30;1.97;;;16.40;99.90;;;;;;4860870;29;20240;-61
2022/06/14 06:29:57;;;;;;;7.17;1.80;;;16.60;99.90;;;;;;4860704;29;20362;-60
2022/06/14 06:32:25;;;;;;;2.30;1.30;;;16.50;99.90;;;;;;4860901;29;20273;-63
2022/06/14 06:34:51;;;;;;;2.07;1.40;;;16.30;99.90;;;;;;4835002;29;20193;-62
2022/06/14 06:38:00;;;;;;;3.33;1.57;;;16.20;99.90;;;;;;4825896;29;20197;-62
2022/06/14 06:40:26;;;;;;;4.63;1.43;;;16.40;99.90;;;;;;4767562;30;20203;-62
2022/06/14 06:42:58;;;;;;;2.97;1.60;;;16.70;99.90;;;;;;4752996;30;20335;-64
2022/06/14 06:45:49;;;;;;;4.13;1.90;;;16.60;99.90;;;;;;4807901;29;20604;-61
2022/06/14 06:48:33;;;;;;;3.30;1.60;;;16.70;99.90;;;;;;4841987;29;20186;-63
2022/06/14 06:51:05;;;;;;;2.63;1.30;;;16.70;99.90;;;;;;4840115;29;20281;-65
2022/06/14 06:53:52;;;;;;;4.37;1.90;;;16.70;99.90;;;;;;4839716;29;20289;-63
2022/06/14 06:56:36;;;;;;;5.67;1.50;;;16.70;99.90;;;;;;4841884;29;20192;-62
2022/06/14 06:59:09;;;;;;;4.40;1.60;;;16.70;99.90;;;;;;4841779;29;20205;-61
2022/06/14 07:01:40;;;;;;;3.13;1.50;;;16.50;99.90;;;;;;4841734;29;20546;-66
2022/06/14 07:07:14;;;;;;;2.63;1.50;;;16.20;99.90;;;;;;4841435;29;20637;-62
2022/06/14 07:09:50;;;;;;;2.60;1.33;;;16.30;99.90;;;;;;4841658;29;20248;-61
2022/06/14 07:12:42;;;;;;;8.07;2.10;;;16.30;99.90;;;;;;4842439;29;20556;-63
2022/06/14 07:15:19;;;;;;;6.03;1.87;;;16.40;99.90;;;;;;4840848;29;20201;-61
2022/06/14 07:17:53;;;;;;;5.77;1.80;;;16.60;99.90;;;;;;4844567;29;20192;-62
2022/06/14 07:20:44;;;;;;;2.23;1.60;;;16.80;99.90;;;;;;4857209;29;20181;-65
2022/06/14 07:23:37;;;;;;;3.60;1.13;;;16.60;99.90;;;;;;4824940;29;20190;-59
2022/06/14 07:26:14;;;;;;;4.73;1.53;;;16.80;99.90;;;;;;4827570;29;20272;-60
2022/06/14 07:28:59;;;;;;;3.83;1.50;;;16.70;99.90;;;;;;4841401;29;20236;-59
2022/06/14 07:31:50;;;;;;;2.90;1.50;;;16.90;99.90;;;;;;4841531;29;20189;-63
2022/06/14 07:34:17;;;;;;;6.57;1.57;;;17.00;99.90;;;;;;4840771;29;20220;-61
2022/06/14 07:37:01;;;;;;;3.77;1.40;;;17.20;99.90;;;;;;4840734;29;20266;-61
2022/06/14 07:39:45;;;;;;;4.07;1.70;;;17.10;99.90;;;;;;4841099;29;20627;-64
2022/06/14 07:42:39;;;;;;;11.00;2.60;;;16.90;99.90;;;;;;4841506;29;20554;-56
2022/06/14 07:45:14;;;;;;;6.60;1.83;;;17.20;99.90;;;;;;4841143;29;20221;-66
2022/06/14 07:47:46;;;;;;;3.00;1.70;;;17.20;99.90;;;;;;4841446;29;20182;-64
2022/06/14 07:50:31;;;;;;;4.43;1.80;;;17.30;99.90;;;;;;4841492;29;20245;-67
2022/06/14 07:53:02;;;;;;;3.90;1.20;;;17.50;99.90;;;;;;4824179;29;20206;-67
2022/06/14 07:55:46;;;;;;;6.17;2.33;;;18.00;99.90;;;;;;4840915;29;20194;-62
2022/06/14 07:58:22;;;;;;;9.60;1.80;;;18.20;99.90;;;;;;4841203;29;20512;-61
2022/06/14 08:01:09;;;;;;;4.17;1.90;;;18.00;99.90;;;;;;4824409;29;20641;-63
2022/06/14 08:04:13;;;;;;;7.83;2.33;;;17.90;99.90;;;;;;4840401;29;20236;-64
2022/06/14 08:06:38;;;;;;;3.77;1.50;;;17.50;99.90;;;;;;4822689;29;20186;-63
2022/06/14 08:09:29;;;;;;;4.03;2.50;;;17.30;99.90;;;;;;4822497;29;20209;-63
2022/06/14 08:11:58;;;;;;;6.53;1.93;;;17.10;99.90;;;;;;4840445;29;20190;-62
2022/06/14 08:14:43;;;;;;;4.77;1.83;;;17.10;99.90;;;;;;4840761;29;20334;-62
2022/06/14 08:17:12;;;;;;;5.70;2.20;;;17.30;99.90;;;;;;4840124;29;20192;-62
2022/06/14 08:19:49;;;;;;;2.90;1.73;;;17.50;99.90;;;;;;4856751;29;20185;-59
2022/06/14 08:22:27;;;;;;;5.07;1.70;;;17.60;99.90;;;;;;4858887;29;20184;-58
2022/06/14 08:24:59;;;;;;;5.43;2.30;;;17.50;99.90;;;;;;4858546;29;20220;-60
2022/06/14 08:27:32;;;;;;;3.70;1.43;;;17.30;99.90;;;;;;4858406;29;20244;-64
2022/06/14 08:30:10;;;;;;;4.33;2.10;;;17.30;99.90;;;;;;4859041;29;20187;-67
2022/06/14 08:33:13;;;;;;;5.70;1.97;;;17.30;99.90;;;;;;4858301;29;20640;-68
2022/06/14 08:35:52;;;;;;;4.67;2.43;;;17.30;99.90;;;;;;4830449;29;20261;-62
2022/06/14 08:38:26;;;;;;;5.17;1.73;;;17.60;99.90;;;;;;4839920;29;20251;-60
2022/06/14 08:40:52;;;;;;;4.40;1.90;;;17.90;99.90;;;;;;4840082;29;20188;-58
2022/06/14 08:43:32;;;;;;;5.67;1.47;;;18.20;99.90;;;;;;4838600;29;20594;-60
2022/06/14 08:46:16;;;;;;;5.00;1.90;;;18.20;99.80;;;;;;4837997;29;20924;-60
2022/06/14 08:48:56;;;;;;;6.57;1.80;;;18.00;99.60;;;;;;4838490;29;20178;-57
2022/06/14 08:52:06;;;;;;;4.10;1.50;;;18.10;99.80;;;;;;4840474;29;20185;-58
2022/06/14 08:54:43;;;;;;;11.60;1.90;;;18.30;99.30;;;;;;4820144;29;20232;-60
2022/06/14 08:57:34;;;;;;;3.43;1.60;;;18.10;99.20;;;;;;4839907;29;20189;-58
2022/06/14 09:00:24;;;;;;;9.13;2.23;;;18.20;99.10;;;;;;4839015;29;20189;-60
2022/06/14 09:03:17;;;;;;;9.10;2.10;;;18.40;98.60;;;;;;4838839;29;20608;-60
2022/06/14 09:06:24;;;;;;;9.23;2.20;;;18.70;97.70;;;;;;4839101;29;20276;-58
2022/06/14 09:08:58;;;;;;;5.13;2.00;;;19.00;97.60;;;;;;4823192;29;20277;-59
2022/06/14 09:11:51;;;;;;;4.18;1.80;;;19.10;96.60;;;;;;4823094;29;20219;-60
2022/06/14 09:14:35;;;;;;;7.80;2.20;;;19.00;96.90;;;;;;4839453;29;20274;-58
2022/06/14 09:17:40;;;;;;;6.45;1.50;;;19.10;97.30;;;;;;4839805;29;20242;-59
2022/06/14 09:20:21;;;;;;;5.65;1.80;;;19.10;97.00;;;;;;4820465;29;20190;-57
2022/06/14 09:23:03;;;;;;;4.15;1.80;;;19.10;97.20;;;;;;4821042;29;21027;-61
2022/06/14 09:25:46;;;;;;;4.05;1.92;;;19.40;97.20;;;;;;4820934;29;20687;-58
2022/06/14 09:28:50;;;;;;;6.55;1.70;;;19.50;96.00;;;;;;4821681;29;20258;-59
2022/06/14 09:31:28;;;;;;;5.90;1.90;;;19.60;95.70;;;;;;4825188;29;20197;-61
2022/06/14 09:34:19;;;;;;;10.60;2.45;;;19.30;95.80;;;;;;4826073;29;20959;-60
2022/06/14 09:37:33;;;;;;;4.07;1.58;;;19.80;95.40;;;;;;4842368;29;20189;-58
2022/06/14 09:40:26;;;;;;;2.03;1.33;;;19.90;93.00;;;;;;4825119;29;20297;-61
2022/06/14 09:43:23;;;;;;;6.03;2.17;;;19.40;92.10;;;;;;4842366;29;20200;-60
2022/06/14 09:46:01;;;;;;;4.80;2.10;;;19.40;92.70;;;;;;4842775;29;20285;-61
2022/06/14 09:48:57;;;;;;;4.07;1.60;;;19.50;93.10;;;;;;4825592;29;20204;-58
2022/06/14 09:51:42;;;;;;;8.20;2.00;;;19.40;91.20;;;;;;4843136;29;20208;-60
2022/06/14 09:54:41;;;;;;;6.03;2.10;;;19.50;91.40;;;;;;4842223;29;20197;-59
2022/06/14 09:57:25;;;;;;;7.00;2.20;;;19.70;90.60;;;;;;4826058;29;20186;-59
2022/06/14 10:00:18;;;;;;;7.10;2.55;;;19.80;90.40;;;;;;4825663;29;20189;-61
2022/06/14 10:02:53;;;;;;;5.55;2.17;;;19.80;90.80;;;;;;4841716;29;20233;-60
2022/06/14 10:05:27;;;;;;;14.48;2.42;;;20.10;91.00;;;;;;4843013;29;20228;-60
2022/06/14 10:08:17;;;;;;;5.85;1.80;;;20.20;91.00;;;;;;4842804;29;20554;-59
2022/06/14 10:11:06;;;;;;;7.22;2.25;;;20.10;90.70;;;;;;4842635;29;20221;-60
2022/06/14 10:14:07;;;;;;;5.10;1.77;;;19.80;90.60;;;;;;4841344;29;20193;-60
2022/06/14 10:16:39;;;;;;;4.68;1.90;;;19.80;87.60;;;;;;4842407;29;20318;-60
2022/06/14 10:19:10;;;;;;;4.82;2.17;;;19.80;88.20;;;;;;4855002;29;20193;-60
2022/06/14 10:21:48;;;;;;;4.93;1.98;;;19.70;87.40;;;;;;4860385;29;20185;-61
2022/06/14 10:24:30;;;;;;;5.70;2.20;;;19.80;87.80;;;;;;4860698;29;20315;-60
2022/06/14 10:30:21;;;;;;;4.72;1.67;;;20.30;87.10;;;;;;4860941;29;20223;-60
2022/06/14 10:32:56;;;;;;;5.13;1.98;;;20.00;86.70;;;;;;4860371;29;20196;-61
2022/06/14 10:35:53;;;;;;;5.88;1.70;;;19.70;88.00;;;;;;4847919;29;20592;-58
2022/06/14 10:38:38;;;;;;;7.25;1.85;;;19.70;88.30;;;;;;4815908;29;20209;-60
2022/06/14 10:41:21;;;;;;;7.88;2.15;;;19.70;88.30;;;;;;4841853;29;20248;-61
2022/06/14 10:43:54;;;;;;;8.82;2.20;;;20.00;88.10;;;;;;4825121;29;20194;-60
2022/06/14 10:46:27;;;;;;;4.53;1.90;;;20.10;87.60;;;;;;4842309;29;20201;-61
2022/06/14 10:49:38;;;;;;;6.18;2.90;;;19.70;82.50;;;;;;4841973;29;20306;-59
2022/06/14 10:52:29;;;;;;;4.28;1.73;;;19.70;81.20;;;;;;4842288;29;20186;-60
2022/06/14 10:55:05;;;;;;;8.07;2.55;;;19.60;81.30;;;;;;4841837;29;20232;-59
2022/06/14 10:58:07;;;;;;;3.92;1.75;;;19.80;82.40;;;;;;4841767;29;20264;-65
2022/06/14 11:00:58;;;;;;;5.07;1.95;;;19.90;82.90;;;;;;4824816;29;20193;-61
2022/06/14 11:03:41;;;;;;;4.63;1.55;;;20.20;77.30;;;;;;4842190;29;20185;-60
2022/06/14 11:06:50;;;;;;;3.45;1.55;;;20.30;77.80;;;;;;4823752;29;20278;-60
2022/06/14 11:09:33;;;;;;;4.18;1.90;;;20.40;79.90;;;;;;4819128;29;20255;-61
2022/06/14 11:12:11;;;;;;;4.47;1.50;;;21.10;79.20;;;;;;4823756;29;20215;-62
2022/06/14 11:14:51;;;;;;;9.43;2.08;;;21.50;73.30;;;;;;4823633;29;20283;-61
2022/06/14 11:17:37;;;;;;;7.93;1.77;;;21.70;71.70;;;;;;4824114;29;20182;-62
2022/06/14 11:20:31;;;;;;;5.05;1.98;;;21.60;71.70;;;;;;4823663;29;20198;-61
2022/06/14 11:23:25;;;;;;;5.07;2.28;;;21.90;73.00;;;;;;4823686;29;20205;-60
2022/06/14 11:26:02;;;;;;;3.83;1.60;;;22.60;70.00;;;;;;4823043;29;20222;-62
2022/06/14 11:28:41;;;;;;;11.65;2.92;;;24.30;66.80;;;;;;4823088;29;20317;-59
2022/06/14 11:31:21;;;;;;;11.82;2.10;;;25.70;64.10;;;;;;4823325;29;20189;-61
2022/06/14 11:34:08;;;;;;;5.82;1.90;;;26.30;58.00;;;;;;4823663;29;20190;-60
2022/06/14 11:36:49;;;;;;;7.70;2.20;;;26.00;56.90;;;;;;4840829;29;20208;-62
2022/06/14 11:39:43;;;;;;;3.45;1.80;;;27.00;55.70;;;;;;4841410;29;20583;-61
2022/06/14 11:42:16;;;;;;;3.53;1.85;;;26.90;53.60;;;;;;4840957;29;20185;-61
2022/06/14 11:45:00;;;;;;;2.85;1.77;;;26.60;52.80;;;;;;4840774;29;20574;-60
2022/06/14 11:48:04;;;;;;;10.45;1.90;;;26.90;53.90;;;;;;4840958;29;20190;-61
2022/06/14 11:50:46;;;;;;;3.42;1.55;;;27.40;55.60;;;;;;4841124;29;20553;-60
2022/06/14 11:53:23;;;;;;;6.47;1.70;;;28.30;52.70;;;;;;4840363;29;20226;-60
2022/06/14 11:55:59;;;;;;;6.78;1.40;;;27.70;48.20;;;;;;4840743;29;20246;-60
2022/06/14 11:59:00;;;;;;;3.58;1.10;;;26.90;47.80;;;;;;4841218;29;20200;-61
2022/06/14 12:02:23;;;;;;;6.93;1.63;;;28.10;46.20;;;;;;4809432;29;20205;-59
2022/06/14 12:04:56;;;;;;;5.00;2.38;;;28.90;48.00;;;;;;4774887;30;20570;-60
2022/06/14 12:07:38;;;;;;;4.32;1.83;;;29.20;48.40;;;;;;4766154;30;20611;-59
2022/06/14 12:10:30;;;;;;;2.78;1.70;;;29.30;48.80;;;;;;4812411;29;20268;-60
2022/06/14 12:13:13;;;;;;;6.38;1.80;;;28.30;47.30;;;;;;4824990;29;20672;-60
2022/06/14 12:16:06;;;;;;;2.20;1.42;;;28.10;48.00;;;;;;4827943;29;20637;-61
2022/06/14 12:18:36;;;;;;;10.07;2.70;;;28.70;47.20;;;;;;4849160;29;20185;-62
2022/06/14 12:21:08;;;;;;;6.38;2.33;;;30.30;46.40;;;;;;4859030;29;20271;-61
2022/06/14 12:23:39;;;;;;;4.20;1.50;;;32.10;42.00;;;;;;4858648;29;20646;-60
2022/06/14 12:26:37;;;;;;;4.55;2.28;;;31.70;41.80;;;;;;4859083;29;20246;-59
2022/06/14 12:29:29;;;;;;;4.43;1.42;;;31.70;43.00;;;;;;4858811;29;20240;-59
2022/06/14 12:32:11;;;;;;;9.73;2.00;;;31.90;42.00;;;;;;4858395;29;20740;-59
2022/06/14 12:34:41;;;;;;;4.22;1.90;;;31.90;42.70;;;;;;4834546;29;20650;-60
2022/06/14 12:37:18;;;;;;;3.47;1.50;;;32.50;42.80;;;;;;4824205;29;20193;-57
2022/06/14 12:40:22;;;;;;;5.28;1.70;;;32.40;41.70;;;;;;4833334;29;20211;-57
2022/06/14 12:43:16;;;;;;;20.25;2.75;;;32.40;41.10;;;;;;4817687;29;20228;-56
2022/06/14 12:45:58;;;;;;;3.08;1.85;;;32.10;40.50;;;;;;4837595;29;20241;-59
2022/06/14 12:48:35;;;;;;;4.45;1.83;;;31.00;41.70;;;;;;4833565;29;20234;-55
2022/06/14 12:51:26;;;;;;;5.15;1.50;;;30.70;42.00;;;;;;4828050;29;20216;-56
2022/06/14 12:53:52;;;;;;;4.35;1.70;;;30.40;41.80;;;;;;4800503;29;20263;-54
2022/06/14 12:56:22;;;;;;;7.63;1.67;;;30.20;42.10;;;;;;4824825;29;20206;-55
2022/06/14 12:59:03;;;;;;;3.13;1.48;;;29.80;42.40;;;;;;4834923;29;20217;-56
2022/06/14 13:01:39;;;;;;;10.85;1.95;;;30.50;43.00;;;;;;4833105;29;20281;-59
2022/06/14 13:04:17;;;;;;;7.05;1.73;;;32.10;40.80;;;;;;4823056;29;20304;-58
2022/06/14 13:07:28;;;;;;;2.95;1.40;;;32.90;39.20;;;;;;4821292;29;20205;-58
2022/06/14 13:10:14;;;;;;;3.80;1.80;;;32.10;38.90;;;;;;4814302;29;20206;-57
2022/06/14 13:13:02;;;;;;;7.57;2.42;;;33.30;38.20;;;;;;4839102;29;20194;-54
2022/06/14 13:15:43;;;;;;;3.90;1.38;;;32.70;38.80;;;;;;4826440;29;20198;-58
2022/06/14 13:18:14;;;;;;;4.90;1.75;;;32.60;39.20;;;;;;4830669;29;20189;-58
2022/06/14 13:20:55;;;;;;;4.47;1.85;;;32.70;40.70;;;;;;4826754;29;20193;-56
2022/06/14 13:23:27;;;;;;;10.80;2.00;;;34.40;38.50;;;;;;4822026;29;20203;-58
2022/06/14 13:26:20;;;;;;;7.45;2.38;;;35.60;36.40;;;;;;4822867;29;20229;-57
2022/06/14 13:29:10;;;;;;;4.45;1.55;;;35.50;36.80;;;;;;4827256;29;20246;-59
2022/06/14 13:32:02;;;;;;;3.92;1.30;;;35.80;35.80;;;;;;4820904;29;20187;-57
2022/06/14 13:35:00;;;;;;;5.50;1.58;;;33.90;36.20;;;;;;4827006;29;20268;-56
2022/06/14 13:37:38;;;;;;;5.90;1.58;;;32.90;37.30;;;;;;4839269;29;20630;-56
2022/06/14 13:40:22;;;;;;;4.53;1.80;;;32.80;37.20;;;;;;4839936;29;20574;-57
2022/06/14 13:43:08;;;;;;;5.35;1.10;;;32.30;38.90;;;;;;4823334;29;20182;-58
2022/06/14 13:45:55;;;;;;;4.22;2.28;;;31.50;38.00;;;;;;4839306;29;20217;-56
2022/06/14 13:48:51;;;;;;;6.18;2.00;;;29.90;39.30;;;;;;4839694;29;20181;-59
2022/06/14 13:51:41;;;;;;;3.53;1.67;;;29.70;41.30;;;;;;4823885;29;20193;-55
2022/06/14 13:54:29;;;;;;;3.00;1.52;;;31.00;38.90;;;;;;4840134;29;20182;-57
2022/06/14 13:57:13;;;;;;;6.18;1.90;;;30.20;40.20;;;;;;4830840;29;20201;-58
2022/06/14 13:59:44;;;;;;;5.75;1.55;;;28.10;43.60;;;;;;4839754;29;20181;-53
2022/06/14 14:02:46;;;;;;;5.28;1.55;;;28.00;44.70;;;;;;4839022;29;20221;-57
2022/06/14 14:05:36;;;;;;;3.63;1.70;;;28.30;43.50;;;;;;4839858;29;20221;-55
2022/06/14 14:08:14;;;;;;;3.75;1.70;;;27.40;44.10;;;;;;4839204;29;20218;-55
2022/06/14 14:10:47;;;;;;;5.97;2.03;;;26.30;45.90;;;;;;4839358;29;20323;-54